createdAt,value
2019-01-04T00:02:05.818Z,102662.01
2019-01-04T00:04:39.442Z,102673.81
2019-01-04T00:07:13.042Z,102668.13
2019-01-04T00:09:46.681Z,102671.51
2019-01-04T00:12:20.257Z,102657.34
2019-01-04T00:14:53.911Z,102662.58
2019-01-04T00:17:27.491Z,102670.44
2019-01-04T00:20:01.108Z,102674.98
2019-01-04T00:22:34.714Z,102674.22
2019-01-04T00:25:08.422Z,102676.74
2019-01-04T00:27:42.005Z,102680.42
2019-01-04T00:30:15.703Z,102674.32
2019-01-04T00:32:49.288Z,102672.47
2019-01-04T00:35:22.900Z,102664.74
2019-01-04T00:37:56.496Z,102653.30
2019-01-04T00:40:30.196Z,102652.95
2019-01-04T00:43:03.808Z,102644.22
2019-01-04T00:45:37.551Z,102642.97
2019-01-04T00:48:11.150Z,102658.78
2019-01-04T00:50:44.777Z,102669.17
2019-01-04T00:53:18.367Z,102664.37
2019-01-04T00:56:31.838Z,102663.78
2019-01-04T00:59:45.329Z,102652.04
2019-01-04T01:02:57.648Z,102645.18
2019-01-04T01:06:09.707Z,102645.23
2019-01-04T01:09:23.172Z,102653.16
2019-01-04T01:12:35.348Z,102649.21
2019-01-04T01:15:47.559Z,102641.00
2019-01-04T01:18:59.742Z,102647.24
2019-01-04T01:22:13.364Z,102642.25
2019-01-04T01:25:25.537Z,102638.88
2019-01-04T01:28:39.092Z,102637.92
2019-01-04T01:31:51.262Z,102639.08
2019-01-04T01:35:03.546Z,102631.05
2019-01-04T01:38:15.715Z,102640.34
2019-01-04T01:41:27.927Z,102642.16
2019-01-04T01:44:40.112Z,102638.16
2019-01-04T01:47:53.560Z,102642.56
2019-01-04T01:51:06.990Z,102641.55
2019-01-04T01:54:20.456Z,102636.59
2019-01-04T01:56:54.049Z,102643.45
2019-01-04T01:59:27.713Z,102644.00
2019-01-04T02:05:14.498Z,102627.63
2019-01-04T02:08:07.260Z,102627.63
2019-01-04T02:10:40.792Z,102636.63
2019-01-04T02:13:14.526Z,102629.17
2019-01-04T02:15:47.959Z,102634.82
2019-01-04T02:18:21.589Z,102631.75
2019-01-04T02:20:55.091Z,102630.34
2019-01-04T02:23:28.631Z,102628.22
2019-01-04T02:26:02.136Z,102632.09
2019-01-04T02:28:35.676Z,102628.41
2019-01-04T02:31:09.185Z,102624.53
2019-01-04T02:36:22.187Z,102629.50
2019-01-04T02:38:55.743Z,102626.52
2019-01-04T02:41:29.174Z,102619.30
2019-01-04T02:44:22.062Z,102615.56
2019-01-04T02:46:55.579Z,102611.26
2019-01-04T02:49:29.126Z,102609.20
2019-01-04T02:52:02.626Z,102615.72
2019-01-04T02:54:36.228Z,102618.91
2019-01-04T03:03:03.079Z,102608.22
2019-01-04T03:05:36.577Z,102609.44
2019-01-04T03:08:10.223Z,102610.27
2019-01-04T03:10:43.719Z,102619.05
2019-01-04T03:13:17.325Z,102609.79
2019-01-04T03:15:50.839Z,102605.80
2019-01-04T03:18:24.467Z,102604.56
2019-01-04T03:20:58.016Z,102594.95
2019-01-04T03:23:31.640Z,102584.72
2019-01-04T03:26:05.228Z,102572.89
2019-01-04T03:28:38.729Z,102569.32
2019-01-04T03:31:12.230Z,102560.36
2019-01-04T03:33:45.853Z,102552.61
2019-01-04T03:36:19.358Z,102543.05
2019-01-04T03:41:31.361Z,102533.53
2019-01-04T03:44:04.895Z,102526.95
2019-01-04T03:46:38.414Z,102529.55
2019-01-04T03:49:11.952Z,102531.13
2019-01-04T03:51:45.462Z,102528.28
2019-01-04T03:54:19.000Z,102520.06
2019-01-04T03:56:52.516Z,102519.06
2019-01-04T03:59:26.156Z,102507.69
2019-01-04T04:01:59.749Z,102506.96
2019-01-04T04:04:33.377Z,102501.55
2019-01-04T04:07:06.881Z,102510.39
2019-01-04T04:09:40.612Z,102499.10
2019-01-04T04:12:14.178Z,102505.27
2019-01-04T04:14:47.727Z,102498.19
2019-01-04T04:17:21.246Z,102499.64
2019-01-04T04:19:54.807Z,102494.77
2019-01-04T04:22:28.326Z,102492.69
2019-01-04T04:25:01.962Z,102487.51
2019-01-04T04:27:35.478Z,102470.30
2019-01-04T04:30:09.014Z,102465.70
2019-01-04T04:32:42.453Z,102459.14
2019-01-04T04:35:16.083Z,102451.35
2019-01-04T04:37:49.588Z,102446.42
2019-01-04T04:40:23.209Z,102435.53
2019-01-04T04:42:56.784Z,102428.07
2019-01-04T04:45:30.265Z,102437.03
2019-01-04T04:48:03.776Z,102424.55
2019-01-04T04:50:37.423Z,102433.11
2019-01-04T04:53:10.945Z,102428.02
2019-01-04T04:55:44.565Z,102431.47
2019-01-04T04:58:18.003Z,102429.91
2019-01-04T05:00:51.548Z,102426.79
2019-01-04T05:03:24.975Z,102422.72
2019-01-04T05:05:58.728Z,102420.55
2019-01-04T05:08:32.167Z,102405.64
2019-01-04T05:11:05.717Z,102416.09
2019-01-04T05:13:39.154Z,102412.75
2019-01-04T05:16:12.711Z,102416.25
2019-01-04T05:18:46.148Z,102410.27
2019-01-04T05:21:19.679Z,102410.38
2019-01-04T05:23:53.180Z,102415.10
2019-01-04T05:26:26.657Z,102411.45
2019-01-04T05:29:00.089Z,102403.57
2019-01-04T05:31:33.625Z,102409.19
2019-01-04T05:34:07.147Z,102410.08
2019-01-04T05:36:40.687Z,102411.27
2019-01-04T05:39:14.259Z,102403.34
2019-01-04T05:41:47.829Z,102405.31
2019-01-04T05:44:21.331Z,102407.98
2019-01-04T05:46:54.940Z,102401.95
2019-01-04T05:49:28.457Z,102410.55
2019-01-04T05:52:01.985Z,102405.67
2019-01-04T05:54:35.497Z,102390.36
2019-01-04T05:57:09.060Z,102391.67
2019-01-04T05:59:42.493Z,102388.58
2019-01-04T06:02:16.107Z,102389.12
2019-01-04T06:04:49.619Z,102395.22
2019-01-04T06:07:23.261Z,102378.91
2019-01-04T06:09:56.767Z,102387.46
2019-01-04T06:12:30.317Z,102379.97
2019-01-04T06:18:16.839Z,102383.63
2019-01-04T06:20:50.346Z,102378.50
2019-01-04T06:23:23.884Z,102376.28
2019-01-04T06:25:57.393Z,102367.31
2019-01-04T06:28:31.032Z,102372.48
2019-01-04T06:31:04.610Z,102374.30
2019-01-04T06:33:38.163Z,102383.56
2019-01-04T06:36:11.591Z,102374.50
2019-01-04T06:38:45.132Z,102377.59
2019-01-04T06:41:18.672Z,102368.83
2019-01-04T06:43:52.256Z,102359.89
2019-01-04T06:46:25.762Z,102356.09
2019-01-04T06:48:59.224Z,102361.23
2019-01-04T06:51:32.733Z,102351.10
2019-01-04T06:54:46.504Z,102350.55
2019-01-04T06:57:20.014Z,102348.19
2019-01-04T06:59:53.552Z,102346.14
2019-01-04T07:02:27.060Z,102335.70
2019-01-04T07:05:00.614Z,102333.58
2019-01-04T07:07:34.047Z,102331.83
2019-01-04T07:10:47.501Z,102325.16
2019-01-04T07:13:20.999Z,102324.09
2019-01-04T07:15:54.543Z,102323.17
2019-01-04T07:18:28.055Z,102321.87
2019-01-04T07:21:01.609Z,102329.41
2019-01-04T07:23:35.111Z,102326.02
2019-01-04T07:26:08.829Z,102320.19
2019-01-04T07:28:42.338Z,102334.16
2019-01-04T07:31:15.879Z,102328.67
2019-01-04T07:33:49.468Z,102329.47
2019-01-04T07:36:23.089Z,102327.16
2019-01-04T07:38:56.593Z,102323.05
2019-01-04T07:41:30.214Z,102313.23
2019-01-04T07:44:03.787Z,102327.89
2019-01-04T07:46:37.334Z,102329.92
2019-01-04T07:49:10.912Z,102329.32
2019-01-04T07:51:44.458Z,102324.95
2019-01-04T07:54:17.961Z,102320.87
2019-01-04T07:56:51.592Z,102322.20
2019-01-04T07:59:25.104Z,102310.00
2019-01-04T08:01:58.658Z,102303.41
2019-01-04T08:04:32.165Z,102299.11
2019-01-04T08:09:45.132Z,102294.85
2019-01-04T08:12:18.769Z,102288.79
2019-01-04T08:14:52.278Z,102296.70
2019-01-04T08:17:25.901Z,102282.00
2019-01-04T08:19:59.329Z,102271.95
2019-01-04T08:22:32.792Z,102270.37
2019-01-04T08:25:46.182Z,102267.57
2019-01-04T08:30:58.968Z,102261.91
2019-01-04T08:33:32.605Z,102262.38
2019-01-04T08:36:06.111Z,102260.61
2019-01-04T08:41:18.669Z,102262.05
2019-01-04T08:43:52.210Z,102254.15
2019-01-04T08:46:25.717Z,102252.38
2019-01-04T08:48:59.324Z,102250.56
2019-01-04T08:51:32.847Z,102251.43
2019-01-04T08:54:06.645Z,102244.62
2019-01-04T08:56:40.157Z,102247.33
2019-01-04T08:59:13.687Z,102239.28
2019-01-04T09:01:47.191Z,102242.40
2019-01-04T09:04:20.755Z,102244.13
2019-01-04T09:06:54.190Z,102242.64
2019-01-04T09:09:27.751Z,102245.08
2019-01-04T09:12:01.190Z,102240.94
2019-01-04T09:14:34.798Z,102236.00
2019-01-04T09:17:08.327Z,102235.14
2019-01-04T09:19:41.963Z,102232.45
2019-01-04T09:22:15.852Z,102227.28
2019-01-04T09:24:50.757Z,102221.04
2019-01-04T09:27:24.341Z,102216.13
2019-01-04T09:29:57.888Z,102222.63
2019-01-04T09:32:31.407Z,102214.62
2019-01-04T09:35:44.819Z,102224.25
2019-01-04T09:38:18.165Z,102218.40
2019-01-04T09:41:31.702Z,102207.00
2019-01-04T09:44:05.207Z,102199.08
2019-01-04T09:46:38.745Z,102192.74
2019-01-04T09:49:12.251Z,102190.98
2019-01-04T09:51:45.713Z,102189.24
2019-01-04T09:54:19.278Z,102178.73
2019-01-04T09:56:52.931Z,102188.95
2019-01-04T09:59:26.446Z,102174.64
2019-01-04T10:01:59.891Z,102192.52
2019-01-04T10:04:52.740Z,102163.56
2019-01-04T10:07:26.376Z,102163.56
2019-01-04T10:09:59.867Z,102186.22
2019-01-04T10:12:33.472Z,102186.25
2019-01-04T10:15:46.882Z,102182.93
2019-01-04T10:18:20.507Z,102172.44
2019-01-04T10:20:54.024Z,102162.16
2019-01-04T10:23:27.632Z,102137.28
2019-01-04T10:26:01.142Z,102134.47
2019-01-04T10:28:34.545Z,102114.41
2019-01-04T10:31:08.021Z,102100.95
2019-01-04T10:33:41.571Z,102092.55
2019-01-04T10:36:15.150Z,102084.94
2019-01-04T10:38:48.681Z,102087.77
2019-01-04T10:41:22.117Z,102091.42
2019-01-04T10:44:14.920Z,102086.11
2019-01-04T10:47:07.758Z,102086.11
2019-01-04T10:50:00.724Z,102076.12
2019-01-04T10:52:53.570Z,102076.05
2019-01-04T10:55:27.224Z,102076.05
2019-01-04T10:58:00.763Z,102056.50
2019-01-04T11:00:34.381Z,102055.11
2019-01-04T11:03:07.873Z,102049.72
2019-01-04T11:05:41.418Z,102053.45
2019-01-04T11:08:14.848Z,102034.91
2019-01-04T11:10:48.510Z,102026.63
2019-01-04T11:13:21.956Z,102021.13
2019-01-04T11:15:55.560Z,102017.72
2019-01-04T11:18:28.995Z,102015.79
2019-01-04T11:21:21.908Z,101997.22
2019-01-04T11:24:35.350Z,101997.22
2019-01-04T11:27:08.879Z,101985.84
2019-01-04T11:30:22.355Z,101958.04
2019-01-04T11:33:35.787Z,101958.04
2019-01-04T11:36:49.195Z,101949.15
2019-01-04T11:40:02.897Z,101961.02
2019-01-04T11:43:14.969Z,101962.02
2019-01-04T11:46:27.254Z,101952.64
2019-01-04T11:49:40.664Z,101952.64
2019-01-04T11:52:54.105Z,101929.26
2019-01-04T11:55:27.538Z,101935.00
2019-01-04T11:58:01.008Z,101935.00
2019-01-04T12:00:34.510Z,101945.77
2019-01-04T12:03:08.033Z,101964.14
2019-01-04T12:05:41.541Z,101964.38
2019-01-04T12:11:13.749Z,101945.41
2019-01-04T12:14:06.608Z,101934.65
2019-01-04T12:16:40.027Z,101934.65
2019-01-04T12:19:13.570Z,101947.20
2019-01-04T12:22:06.406Z,101925.80
2019-01-04T12:24:39.945Z,101925.80
2019-01-04T12:27:32.733Z,101926.56
2019-01-04T12:30:46.289Z,101926.56
2019-01-04T12:33:19.787Z,101922.17
2019-01-04T12:35:53.256Z,101917.66
2019-01-04T12:38:26.831Z,101912.00
2019-01-04T12:41:00.403Z,101901.52
2019-01-04T12:43:33.907Z,101885.00
2019-01-04T12:46:07.761Z,101877.86
2019-01-04T12:48:41.651Z,101883.79
2019-01-04T12:51:34.450Z,101886.90
2019-01-04T12:54:07.970Z,101889.07
2019-01-04T12:56:41.500Z,101886.44
2019-01-04T12:59:15.008Z,101880.92
2019-01-04T13:01:48.738Z,101892.37
2019-01-04T13:04:22.244Z,101895.74
2019-01-04T13:06:55.943Z,101897.86
2019-01-04T13:09:29.464Z,101894.85
2019-01-04T13:12:03.108Z,101884.57
2019-01-04T13:14:36.608Z,101888.17
2019-01-04T13:17:10.149Z,101882.14
2019-01-04T13:19:43.656Z,101879.71
2019-01-04T13:22:17.196Z,101878.91
2019-01-04T13:24:50.725Z,101872.12
2019-01-04T13:27:24.415Z,101868.97
2019-01-04T13:29:57.932Z,101870.37
2019-01-04T13:32:31.520Z,101865.25
2019-01-04T13:35:44.885Z,101883.61
2019-01-04T13:38:20.077Z,101882.38
2019-01-04T13:40:53.660Z,101892.70
2019-01-04T13:43:27.204Z,101893.78
2019-01-04T13:46:00.710Z,101887.48
2019-01-04T13:48:34.333Z,101893.97
2019-01-04T13:51:07.849Z,101888.28
2019-01-04T13:53:41.460Z,101867.04
2019-01-04T13:56:14.950Z,101878.72
2019-01-04T13:58:48.515Z,101872.84
2019-01-04T14:01:22.016Z,101872.32
2019-01-04T14:03:55.542Z,101874.25
2019-01-04T14:06:29.046Z,101876.51
2019-01-04T14:09:02.599Z,101871.47
2019-01-04T14:11:36.352Z,101865.16
2019-01-04T14:14:09.988Z,101875.81
2019-01-04T14:16:43.569Z,101886.02
2019-01-04T14:19:17.179Z,101872.80
2019-01-04T14:21:50.684Z,101875.76
2019-01-04T14:24:24.217Z,101867.41
2019-01-04T14:27:05.155Z,101862.03
2019-01-04T14:29:38.705Z,101850.94
2019-01-04T14:32:12.197Z,101846.74
2019-01-04T14:34:45.750Z,101856.06
2019-01-04T14:37:19.328Z,101859.92
2019-01-04T14:42:31.830Z,101869.29
2019-01-04T14:45:45.382Z,101867.64
2019-01-04T14:48:19.978Z,101864.67
2019-01-04T14:50:53.631Z,101861.78
2019-01-04T14:53:27.386Z,101860.72
2019-01-04T14:56:01.003Z,101862.93
2019-01-04T14:58:34.574Z,101863.86
2019-01-04T15:01:08.198Z,101860.97
2019-01-04T15:03:41.769Z,101859.23
2019-01-04T15:11:54.409Z,101855.08
2019-01-04T15:14:27.847Z,101852.50
2019-01-04T15:17:01.458Z,101854.27
2019-01-04T15:19:35.002Z,101857.54
2019-01-04T15:22:08.571Z,101861.02
2019-01-04T15:24:42.162Z,101861.63
2019-01-04T15:27:35.132Z,101859.97
2019-01-04T15:30:48.573Z,101857.31
2019-01-04T15:33:22.134Z,101846.75
2019-01-04T15:35:55.707Z,101844.73
2019-01-04T15:38:50.407Z,101835.90
2019-01-04T15:41:24.214Z,101838.83
2019-01-04T15:44:17.723Z,101841.34
2019-01-04T15:46:51.701Z,101847.77
2019-01-04T15:52:26.190Z,101826.98
2019-01-04T15:55:00.216Z,101819.45
2019-01-04T16:00:52.684Z,101824.05
2019-01-04T16:03:26.466Z,101825.36
2019-01-04T16:05:59.983Z,101831.72
2019-01-04T16:08:33.611Z,101826.27
2019-01-04T16:11:07.120Z,101816.94
2019-01-04T16:13:40.826Z,101816.97
2019-01-04T16:16:14.316Z,101812.30
2019-01-04T16:18:48.377Z,101809.73
2019-01-04T16:21:21.883Z,101808.94
2019-01-04T16:23:55.489Z,101816.15
2019-01-04T16:26:29.085Z,101814.45
2019-01-04T16:31:41.877Z,101817.00
2019-01-04T16:34:15.510Z,101826.02
2019-01-04T16:36:49.255Z,101820.94
2019-01-04T16:39:23.310Z,101821.72
2019-01-04T16:41:57.277Z,101813.69
2019-01-04T16:44:31.000Z,101813.34
2019-01-04T16:47:04.918Z,101817.48
2019-01-04T16:49:38.841Z,101814.11
2019-01-04T16:52:12.455Z,101815.44
2019-01-04T16:54:46.332Z,101814.62
2019-01-04T16:57:20.255Z,101812.08
2019-01-04T16:59:54.214Z,101813.80
2019-01-04T17:02:27.916Z,101817.67
2019-01-04T17:05:01.692Z,101816.37
2019-01-04T17:07:35.476Z,101813.03
2019-01-04T17:10:09.519Z,101810.50
2019-01-04T17:12:43.116Z,101808.83
2019-01-04T17:17:56.027Z,101810.11
2019-01-04T17:20:30.157Z,101804.14
2019-01-04T17:23:03.904Z,101807.48
2019-01-04T17:25:37.928Z,101805.41
2019-01-04T17:28:11.746Z,101806.69
2019-01-04T17:30:45.814Z,101807.53
2019-01-04T17:33:19.534Z,101803.71
2019-01-04T17:35:53.602Z,101801.14
2019-01-04T17:38:27.180Z,101796.94
2019-01-04T17:41:00.988Z,101793.12
2019-01-04T17:43:34.503Z,101794.02
2019-01-04T17:46:08.347Z,101786.36
2019-01-04T17:48:41.899Z,101782.12
2019-01-04T17:51:15.526Z,101783.39
2019-01-04T17:53:49.094Z,101785.45
2019-01-04T17:56:22.627Z,101782.03
2019-01-04T17:58:56.127Z,101780.00
2019-01-04T18:01:29.764Z,101778.23
2019-01-04T18:04:03.273Z,101780.40
2019-01-04T18:06:36.814Z,101773.97
2019-01-04T18:09:10.321Z,101773.99
2019-01-04T18:11:43.864Z,101769.40
2019-01-04T18:14:17.294Z,101760.91
2019-01-04T18:16:50.839Z,101762.60
2019-01-04T18:19:24.319Z,101761.78
2019-01-04T18:21:57.856Z,101756.24
2019-01-04T18:24:31.286Z,101754.55
2019-01-04T18:27:04.831Z,101760.08
2019-01-04T18:29:38.344Z,101758.33
2019-01-04T18:32:11.870Z,101764.29
2019-01-04T18:34:45.451Z,101762.61
2019-01-04T18:37:18.945Z,101763.44
2019-01-04T18:39:52.434Z,101754.92
2019-01-04T18:42:26.111Z,101765.58
2019-01-04T18:44:59.617Z,101763.52
2019-01-04T18:47:39.146Z,101767.36
2019-01-04T18:50:48.376Z,101759.67
2019-01-04T18:53:21.931Z,101766.94
2019-01-04T18:55:55.439Z,101769.07
2019-01-04T18:58:28.975Z,101766.55
2019-01-04T19:01:02.554Z,101758.00
2019-01-04T19:03:36.177Z,101765.23
2019-01-04T19:06:09.689Z,101764.83
2019-01-04T19:08:43.340Z,101764.44
2019-01-04T19:11:16.833Z,101762.73
2019-01-04T19:13:50.382Z,101761.48
2019-01-04T19:16:23.945Z,101761.02
2019-01-04T19:18:57.483Z,101760.20
2019-01-04T19:21:30.985Z,101762.77
2019-01-04T19:24:04.523Z,101757.62
2019-01-04T19:26:38.023Z,101756.75
2019-01-04T19:29:11.722Z,101758.50
2019-01-04T19:31:45.227Z,101746.20
2019-01-04T19:34:18.791Z,101733.03
2019-01-04T19:36:52.343Z,101731.74
2019-01-04T19:39:26.087Z,101733.02
2019-01-04T19:41:59.593Z,101739.00
2019-01-04T19:47:12.219Z,101739.42
2019-01-04T19:49:45.771Z,101738.16
2019-01-04T19:52:19.272Z,101731.80
2019-01-04T19:54:52.903Z,101721.95
2019-01-04T19:57:26.404Z,101714.34
2019-01-04T19:59:59.927Z,101713.92
2019-01-04T20:02:33.435Z,101713.94
2019-01-04T20:05:46.883Z,101705.88
2019-01-04T20:09:18.203Z,101710.13
2019-01-04T20:12:31.736Z,101708.00
2019-01-04T20:15:45.475Z,101699.92
2019-01-04T20:18:59.176Z,101691.86
2019-01-04T20:21:51.974Z,101693.14
2019-01-04T20:24:45.099Z,101671.02
2019-01-04T20:27:37.917Z,101680.83
2019-01-04T20:30:30.661Z,101659.99
2019-01-04T20:33:23.293Z,101673.56
2019-01-04T20:36:15.978Z,101658.28
2019-01-04T20:39:08.704Z,101650.63
2019-01-04T20:42:01.515Z,101648.07
2019-01-04T20:44:54.146Z,101654.90
2019-01-04T20:47:46.998Z,101644.69
2019-01-04T20:50:39.615Z,101643.42
2019-01-04T20:53:32.424Z,101638.77
2019-01-04T20:56:25.089Z,101629.39
2019-01-04T20:59:17.820Z,101622.16
2019-01-04T21:02:10.449Z,101608.97
2019-01-04T21:05:22.483Z,101615.35
2019-01-04T21:08:15.201Z,101609.83
2019-01-04T21:11:07.951Z,101603.88
2019-01-04T21:14:00.575Z,101593.27
2019-01-04T21:16:53.331Z,101594.95
2019-01-04T21:19:46.052Z,101595.38
2019-01-04T21:22:38.738Z,101601.76
2019-01-04T21:25:31.407Z,101585.19
2019-01-04T21:28:24.068Z,101586.03
2019-01-04T21:31:16.752Z,101594.52
2019-01-04T21:34:09.415Z,101588.14
2019-01-04T21:37:02.042Z,101586.87
2019-01-04T21:42:35.165Z,101587.31
2019-01-04T21:45:27.821Z,101584.31
2019-01-04T21:48:20.417Z,101585.59
2019-01-04T21:51:13.050Z,101574.13
2019-01-04T21:54:05.711Z,101572.00
2019-01-04T21:56:58.335Z,101569.45
2019-01-04T21:59:51.005Z,101577.08
2019-01-04T22:02:43.646Z,101574.95
2019-01-04T22:05:36.439Z,101586.42
2019-01-04T22:08:29.263Z,101572.84
2019-01-04T22:11:22.014Z,101579.63
2019-01-04T22:17:28.189Z,101572.39
2019-01-04T22:20:20.823Z,101566.89
2019-01-04T22:23:13.597Z,101571.56
2019-01-04T22:26:06.228Z,101566.03
2019-01-04T22:28:58.899Z,101568.13
2019-01-04T22:34:45.665Z,101555.37
2019-01-04T22:37:38.289Z,101554.50
2019-01-04T22:40:30.970Z,101560.04
2019-01-04T22:43:23.600Z,101550.65
2019-01-04T22:46:16.287Z,101549.41
2019-01-04T22:49:08.928Z,101544.31
2019-01-04T22:52:01.672Z,101545.98
2019-01-04T22:54:54.299Z,101551.13
2019-01-04T23:00:51.674Z,101538.75
2019-01-04T23:03:44.306Z,101535.77
2019-01-04T23:09:21.259Z,101541.33
2019-01-04T23:12:13.927Z,101526.41
2019-01-04T23:17:47.220Z,101526.88
2019-01-04T23:26:19.440Z,101509.41
2019-01-04T23:29:08.639Z,101501.79
2019-01-04T23:32:01.320Z,101500.91
2019-01-04T23:34:53.980Z,101484.73
2019-01-04T23:37:46.843Z,101475.77
2019-01-04T23:40:39.570Z,101483.88
2019-01-04T23:43:32.275Z,101475.81
2019-01-04T23:46:24.936Z,101462.58
2019-01-04T23:49:17.730Z,101458.77
2019-01-04T23:52:10.471Z,101457.52
2019-01-04T23:55:03.201Z,101452.36
